createdAt,value
2019-02-17T00:00:36.108Z,4.61
2019-02-17T00:01:36.109Z,4.50
2019-02-17T00:02:36.073Z,4.61
2019-02-17T00:03:36.078Z,4.56
2019-02-17T00:04:36.055Z,4.49
2019-02-17T00:05:36.053Z,4.56
2019-02-17T00:06:36.064Z,4.47
2019-02-17T00:07:36.113Z,4.53
2019-02-17T00:08:36.006Z,4.53
2019-02-17T00:09:36.009Z,4.49
2019-02-17T00:10:35.999Z,4.38
2019-02-17T00:11:35.978Z,4.44
2019-02-17T00:12:36.004Z,4.36
2019-02-17T00:13:35.966Z,4.44
2019-02-17T00:14:35.958Z,4.43
2019-02-17T00:15:35.947Z,4.39
2019-02-17T00:16:35.935Z,4.39
2019-02-17T00:17:35.953Z,4.35
2019-02-17T00:18:35.914Z,4.39
2019-02-17T00:19:35.912Z,4.34
2019-02-17T00:20:35.892Z,4.49
2019-02-17T00:21:35.893Z,4.51
2019-02-17T00:22:35.896Z,4.49
2019-02-17T00:23:35.861Z,4.44
2019-02-17T00:24:35.848Z,4.34
2019-02-17T00:25:35.838Z,4.51
2019-02-17T00:26:35.824Z,4.49
2019-02-17T00:27:35.819Z,4.46
2019-02-17T00:28:35.801Z,4.49
2019-02-17T00:29:35.783Z,4.53
2019-02-17T00:30:35.781Z,4.36
2019-02-17T00:31:35.758Z,4.39
2019-02-17T00:32:35.785Z,4.38
2019-02-17T00:33:35.746Z,4.42
2019-02-17T00:34:35.741Z,4.25
2019-02-17T00:35:35.717Z,4.29
2019-02-17T00:36:35.715Z,4.28
2019-02-17T00:37:35.726Z,4.25
2019-02-17T00:38:35.699Z,4.21
2019-02-17T00:39:35.684Z,4.24
2019-02-17T00:40:35.668Z,4.14
2019-02-17T00:41:35.668Z,4.16
2019-02-17T00:42:35.664Z,4.14
2019-02-17T00:43:35.636Z,4.16
2019-02-17T00:44:35.636Z,4.14
2019-02-17T00:45:35.607Z,4.18
2019-02-17T00:46:35.614Z,4.11
2019-02-17T00:47:35.620Z,4.08
2019-02-17T00:48:35.586Z,4.08
2019-02-17T00:49:36.120Z,3.99
2019-02-17T00:50:35.566Z,4.04
2019-02-17T00:51:35.549Z,4.04
2019-02-17T00:52:35.562Z,3.98
2019-02-17T00:53:35.531Z,3.95
2019-02-17T00:54:35.519Z,3.95
2019-02-17T00:55:35.510Z,3.99
2019-02-17T00:56:35.495Z,4.02
2019-02-17T00:57:35.502Z,3.96
2019-02-17T00:58:35.484Z,3.99
2019-02-17T00:59:35.466Z,3.95
2019-02-17T01:00:35.454Z,4.02
2019-02-17T01:01:35.467Z,3.98
2019-02-17T01:02:35.461Z,3.95
2019-02-17T01:03:35.426Z,3.95
2019-02-17T01:04:35.415Z,3.99
2019-02-17T01:05:35.410Z,4.04
2019-02-17T01:06:35.393Z,4.00
2019-02-17T01:07:35.392Z,4.13
2019-02-17T01:08:35.367Z,4.14
2019-02-17T01:09:35.359Z,4.18
2019-02-17T01:10:35.344Z,4.17
2019-02-17T01:11:35.365Z,4.11
2019-02-17T01:12:35.339Z,4.14
2019-02-17T01:13:35.310Z,4.18
2019-02-17T01:14:35.299Z,4.13
2019-02-17T01:15:35.290Z,4.20
2019-02-17T01:16:35.277Z,4.17
2019-02-17T01:17:35.298Z,4.16
2019-02-17T01:18:35.263Z,4.14
2019-02-17T01:19:35.254Z,4.18
2019-02-17T01:20:35.246Z,4.11
2019-02-17T01:21:35.220Z,4.13
2019-02-17T01:22:35.224Z,4.14
2019-02-17T01:23:35.214Z,4.14
2019-02-17T01:24:35.193Z,4.04
2019-02-17T01:25:35.184Z,4.08
2019-02-17T01:26:35.166Z,4.00
2019-02-17T01:27:35.183Z,4.06
2019-02-17T01:28:35.154Z,4.14
2019-02-17T01:29:35.133Z,4.14
2019-02-17T01:30:35.131Z,4.08
2019-02-17T01:31:35.114Z,4.13
2019-02-17T01:32:35.132Z,4.04
2019-02-17T01:33:35.098Z,4.06
2019-02-17T01:34:35.078Z,4.00
2019-02-17T01:35:35.082Z,4.10
2019-02-17T01:37:24.860Z,4.06
2019-02-17T01:38:25.826Z,3.99
2019-02-17T01:39:25.789Z,4.08
2019-02-17T01:40:25.785Z,4.04
2019-02-17T01:41:25.768Z,4.00
2019-02-17T01:42:25.765Z,3.98
2019-02-17T01:43:25.785Z,4.00
2019-02-17T01:44:25.759Z,3.98
2019-02-17T01:45:25.737Z,3.99
2019-02-17T01:46:25.726Z,4.00
2019-02-17T01:47:25.707Z,4.02
2019-02-17T01:48:25.727Z,3.93
2019-02-17T01:49:25.698Z,3.96
2019-02-17T01:50:25.685Z,3.89
2019-02-17T01:51:25.661Z,3.92
2019-02-17T01:52:25.646Z,4.02
2019-02-17T01:53:25.674Z,3.92
2019-02-17T01:54:25.630Z,3.75
2019-02-17T01:55:25.628Z,3.89
2019-02-17T01:56:25.617Z,3.77
2019-02-17T01:57:25.611Z,3.75
2019-02-17T01:58:25.609Z,3.81
2019-02-17T01:59:30.527Z,3.84
2019-02-17T02:00:25.578Z,3.68
2019-02-17T02:01:25.558Z,3.75
2019-02-17T02:02:25.544Z,3.62
2019-02-17T02:03:25.555Z,3.54
2019-02-17T02:04:25.553Z,3.63
2019-02-17T02:05:25.512Z,3.57
2019-02-17T02:06:25.504Z,3.52
2019-02-17T02:07:25.497Z,3.54
2019-02-17T02:08:25.508Z,3.60
2019-02-17T02:09:25.468Z,3.53
2019-02-17T02:10:25.463Z,3.53
2019-02-17T02:11:25.445Z,3.56
2019-02-17T02:12:25.437Z,3.59
2019-02-17T02:13:25.459Z,3.62
2019-02-17T02:14:25.426Z,3.52
2019-02-17T02:15:25.414Z,3.46
2019-02-17T02:16:25.387Z,3.44
2019-02-17T02:17:25.384Z,3.31
2019-02-17T02:18:25.394Z,3.28
2019-02-17T02:19:25.379Z,3.22
2019-02-17T02:20:25.356Z,3.19
2019-02-17T02:21:25.330Z,3.15
2019-02-17T02:22:25.323Z,3.08
2019-02-17T02:23:25.333Z,3.05
2019-02-17T02:24:25.328Z,3.22
2019-02-17T02:25:25.372Z,3.33
2019-02-17T02:26:25.279Z,3.39
2019-02-17T02:27:25.269Z,3.37
2019-02-17T02:28:25.300Z,3.30
2019-02-17T02:29:25.258Z,3.26
2019-02-17T02:30:25.249Z,3.20
2019-02-17T02:31:25.225Z,3.25
2019-02-17T02:32:25.217Z,3.33
2019-02-17T02:33:25.231Z,3.28
2019-02-17T02:34:25.202Z,3.41
2019-02-17T02:35:25.207Z,3.31
2019-02-17T02:36:25.184Z,3.30
2019-02-17T02:37:25.156Z,3.23
2019-02-17T02:38:25.181Z,3.42
2019-02-17T02:39:25.152Z,3.54
2019-02-17T02:40:25.242Z,3.62
2019-02-17T02:41:34.419Z,3.78
2019-02-17T02:42:25.107Z,3.82
2019-02-17T02:43:25.125Z,3.95
2019-02-17T02:44:25.127Z,3.93
2019-02-17T02:45:25.084Z,4.02
2019-02-17T02:46:25.065Z,4.04
2019-02-17T02:47:25.046Z,3.99
2019-02-17T02:48:25.059Z,3.98
2019-02-17T02:49:25.040Z,3.98
2019-02-17T02:50:25.016Z,4.00
2019-02-17T02:51:25.009Z,4.08
2019-02-17T02:52:25.002Z,4.13
2019-02-17T02:53:24.994Z,4.11
2019-02-17T02:54:24.987Z,4.00
2019-02-17T02:55:24.961Z,3.95
2019-02-17T02:56:24.971Z,3.98
2019-02-17T02:57:24.956Z,4.02
2019-02-17T02:58:24.948Z,3.86
2019-02-17T02:59:24.953Z,3.82
2019-02-17T03:00:24.915Z,3.78
2019-02-17T03:01:24.920Z,3.68
2019-02-17T03:02:24.887Z,3.90
2019-02-17T03:03:24.888Z,3.93
2019-02-17T03:04:24.903Z,3.99
2019-02-17T03:05:24.867Z,4.06
2019-02-17T03:06:24.853Z,3.96
2019-02-17T03:07:24.840Z,3.98
2019-02-17T03:08:24.819Z,4.00
2019-02-17T03:09:24.864Z,4.04
2019-02-17T03:10:24.813Z,3.96
2019-02-17T03:11:24.797Z,3.82
2019-02-17T03:12:24.799Z,3.82
2019-02-17T03:13:24.778Z,3.74
2019-02-17T03:14:24.788Z,3.74
2019-02-17T03:15:24.761Z,3.67
2019-02-17T03:16:24.737Z,3.59
2019-02-17T03:17:24.724Z,3.45
2019-02-17T03:18:24.708Z,3.45
2019-02-17T03:19:24.724Z,3.42
2019-02-17T03:20:24.700Z,3.35
2019-02-17T03:21:24.689Z,3.37
2019-02-17T03:22:24.675Z,3.28
2019-02-17T03:23:24.670Z,3.26
2019-02-17T03:24:24.677Z,3.26
2019-02-17T03:25:24.648Z,3.22
2019-02-17T03:26:24.634Z,3.20
2019-02-17T03:27:24.622Z,3.22
2019-02-17T03:28:24.634Z,3.19
2019-02-17T03:29:24.590Z,3.23
2019-02-17T03:30:24.622Z,3.25
2019-02-17T03:31:24.568Z,3.34
2019-02-17T03:32:24.580Z,3.26
2019-02-17T03:33:24.574Z,3.25
2019-02-17T03:34:24.544Z,3.26
2019-02-17T03:35:24.560Z,3.42
2019-02-17T03:36:24.519Z,3.34
2019-02-17T03:38:33.697Z,3.46
2019-02-17T03:39:34.705Z,3.49
2019-02-17T03:40:34.741Z,3.57
2019-02-17T03:41:34.675Z,3.62
2019-02-17T03:42:34.664Z,3.64
2019-02-17T03:43:34.643Z,3.60
2019-02-17T03:44:34.632Z,3.54
2019-02-17T03:45:34.669Z,3.67
2019-02-17T03:46:34.647Z,3.72
2019-02-17T03:47:34.609Z,3.68
2019-02-17T03:48:34.598Z,3.68
2019-02-17T03:49:34.583Z,3.71
2019-02-17T03:50:34.584Z,3.74
2019-02-17T03:51:34.595Z,3.60
2019-02-17T03:52:34.560Z,3.64
2019-02-17T03:53:34.543Z,3.57
2019-02-17T03:54:34.538Z,3.53
2019-02-17T03:55:34.558Z,3.42
2019-02-17T03:56:34.540Z,3.41
2019-02-17T03:57:34.501Z,3.35
2019-02-17T03:58:34.481Z,3.26
2019-02-17T03:59:34.470Z,3.25
2019-02-17T04:00:34.490Z,3.17
2019-02-17T04:01:34.459Z,3.20
2019-02-17T04:02:34.445Z,3.17
2019-02-17T04:03:34.427Z,3.08
2019-02-17T04:04:34.612Z,3.12
2019-02-17T04:05:34.440Z,2.94
2019-02-17T04:06:34.406Z,2.99
2019-02-17T04:07:34.396Z,2.92
2019-02-17T04:08:34.382Z,3.01
2019-02-17T04:09:34.365Z,3.01
2019-02-17T04:10:34.409Z,2.81
2019-02-17T04:11:34.357Z,2.87
2019-02-17T04:12:34.342Z,2.87
2019-02-17T04:13:34.322Z,2.89
2019-02-17T04:14:34.326Z,2.83
2019-02-17T04:15:34.319Z,2.87
2019-02-17T04:16:55.286Z,2.81
2019-02-17T04:17:34.290Z,2.84
2019-02-17T04:18:34.265Z,2.81
2019-02-17T04:19:34.258Z,2.90
2019-02-17T04:20:34.271Z,3.01
2019-02-17T04:21:34.240Z,3.16
2019-02-17T04:22:34.237Z,3.20
2019-02-17T04:23:34.209Z,3.25
2019-02-17T04:24:34.207Z,3.35
2019-02-17T04:25:34.234Z,3.45
2019-02-17T04:26:34.194Z,3.49
2019-02-17T04:27:34.180Z,3.54
2019-02-17T04:28:34.166Z,3.57
2019-02-17T04:29:34.155Z,3.70
2019-02-17T04:30:34.172Z,3.59
2019-02-17T04:31:34.138Z,3.62
2019-02-17T04:32:34.118Z,3.72
2019-02-17T04:33:34.114Z,3.70
2019-02-17T04:34:34.096Z,3.75
2019-02-17T04:35:34.118Z,3.88
2019-02-17T04:36:34.087Z,3.82
2019-02-17T04:37:34.062Z,3.77
2019-02-17T04:38:34.053Z,3.84
2019-02-17T04:39:34.044Z,3.84
2019-02-17T04:40:34.024Z,3.95
2019-02-17T04:41:34.021Z,3.92
2019-02-17T04:42:34.003Z,3.89
2019-02-17T04:43:34.010Z,3.89
2019-02-17T04:44:33.999Z,3.98
2019-02-17T04:45:33.982Z,3.93
2019-02-17T04:46:33.997Z,3.95
2019-02-17T04:47:33.963Z,4.06
2019-02-17T04:48:33.952Z,4.00
2019-02-17T04:49:33.933Z,3.98
2019-02-17T04:50:33.920Z,3.95
2019-02-17T04:51:33.938Z,3.98
2019-02-17T04:52:33.916Z,4.00
2019-02-17T04:53:33.896Z,3.95
2019-02-17T04:54:33.876Z,3.98
2019-02-17T04:55:33.882Z,3.99
2019-02-17T04:56:33.875Z,3.98
2019-02-17T04:57:33.872Z,3.95
2019-02-17T04:58:33.829Z,3.92
2019-02-17T04:59:33.821Z,3.80
2019-02-17T05:00:40.334Z,3.72
2019-02-17T05:01:33.834Z,3.78
2019-02-17T05:02:33.913Z,3.81
2019-02-17T05:03:33.794Z,3.70
2019-02-17T05:04:33.769Z,3.57
2019-02-17T05:05:33.761Z,3.59
2019-02-17T05:06:33.773Z,3.45
2019-02-17T05:07:33.748Z,3.42
2019-02-17T05:08:33.742Z,3.31
2019-02-17T05:09:33.720Z,3.41
2019-02-17T05:10:33.708Z,3.25
2019-02-17T05:11:33.711Z,3.20
2019-02-17T05:12:33.681Z,3.30
2019-02-17T05:13:33.679Z,3.28
2019-02-17T05:14:33.677Z,3.44
2019-02-17T05:15:33.653Z,3.44
2019-02-17T05:16:33.660Z,3.54
2019-02-17T05:17:33.634Z,3.67
2019-02-17T05:18:33.624Z,3.64
2019-02-17T05:19:33.603Z,3.70
2019-02-17T05:20:33.607Z,3.70
2019-02-17T05:21:33.615Z,3.78
2019-02-17T05:22:33.572Z,3.82
2019-02-17T05:23:33.573Z,3.92
2019-02-17T05:24:33.556Z,3.92
2019-02-17T05:25:33.539Z,4.04
2019-02-17T05:26:33.549Z,3.92
2019-02-17T05:27:33.531Z,3.99
2019-02-17T05:28:33.516Z,4.00
2019-02-17T05:29:33.508Z,3.98
2019-02-17T05:30:33.497Z,4.06
2019-02-17T05:31:33.500Z,4.07
2019-02-17T05:32:33.476Z,4.02
2019-02-17T05:33:33.684Z,3.99
2019-02-17T05:34:33.444Z,4.07
2019-02-17T05:35:33.432Z,3.96
2019-02-17T05:36:33.451Z,3.93
2019-02-17T05:37:33.408Z,3.93
2019-02-17T05:39:42.610Z,3.90
2019-02-17T05:40:43.592Z,3.75
2019-02-17T05:41:43.608Z,3.70
2019-02-17T05:42:43.574Z,3.77
2019-02-17T05:43:43.563Z,3.70
2019-02-17T05:44:43.539Z,3.56
2019-02-17T05:45:43.536Z,3.56
2019-02-17T05:46:43.552Z,3.74
2019-02-17T05:47:43.522Z,3.70
2019-02-17T05:48:43.509Z,3.63
2019-02-17T05:49:43.486Z,3.59
2019-02-17T05:50:43.552Z,3.54
2019-02-17T05:51:43.498Z,3.50
2019-02-17T05:52:43.476Z,3.62
2019-02-17T05:53:43.453Z,3.57
2019-02-17T05:54:43.436Z,3.64
2019-02-17T05:55:43.437Z,3.52
2019-02-17T05:56:43.460Z,3.54
2019-02-17T05:57:43.409Z,3.56
2019-02-17T05:58:43.396Z,3.56
2019-02-17T05:59:43.391Z,3.53
2019-02-17T06:00:43.399Z,3.62
2019-02-17T06:01:43.386Z,3.50
2019-02-17T06:02:43.362Z,3.45
2019-02-17T06:03:43.340Z,3.41
2019-02-17T06:04:43.334Z,3.46
2019-02-17T06:05:43.319Z,3.39
2019-02-17T06:06:43.337Z,3.41
2019-02-17T06:07:43.303Z,3.42
2019-02-17T06:08:43.295Z,3.35
2019-02-17T06:09:43.280Z,3.28
2019-02-17T06:10:43.269Z,3.23
2019-02-17T06:11:43.281Z,3.28
2019-02-17T06:12:43.250Z,3.25
2019-02-17T06:13:43.227Z,3.30
2019-02-17T06:14:43.224Z,3.26
2019-02-17T06:15:43.227Z,3.26
2019-02-17T06:16:43.230Z,3.25
2019-02-17T06:17:43.206Z,3.28
2019-02-17T06:18:43.179Z,3.20
2019-02-17T06:19:43.168Z,3.01
2019-02-17T06:20:43.156Z,3.05
2019-02-17T06:21:43.200Z,3.07
2019-02-17T06:22:43.152Z,3.04
2019-02-17T06:23:43.125Z,3.05
2019-02-17T06:24:43.124Z,3.01
2019-02-17T06:25:43.181Z,2.98
2019-02-17T06:26:43.123Z,3.02
2019-02-17T06:27:43.093Z,3.01
2019-02-17T06:28:43.076Z,2.99
2019-02-17T06:29:43.063Z,2.89
2019-02-17T06:30:43.078Z,2.90
2019-02-17T06:31:43.062Z,2.84
2019-02-17T06:32:43.042Z,2.87
2019-02-17T06:33:43.022Z,2.84
2019-02-17T06:34:43.018Z,2.83
2019-02-17T06:35:43.006Z,2.74
2019-02-17T06:36:42.985Z,2.63
2019-02-17T06:37:42.994Z,2.62
2019-02-17T06:38:42.971Z,2.65
2019-02-17T06:39:42.955Z,2.65
2019-02-17T06:40:42.945Z,2.65
2019-02-17T06:41:42.941Z,2.62
2019-02-17T06:42:42.957Z,2.68
2019-02-17T06:43:42.917Z,2.62
2019-02-17T06:44:42.902Z,2.59
2019-02-17T06:45:42.886Z,2.59
2019-02-17T06:46:42.897Z,2.63
2019-02-17T06:47:42.893Z,2.61
2019-02-17T06:48:42.855Z,2.63
2019-02-17T06:49:42.852Z,2.63
2019-02-17T06:50:42.864Z,2.76
2019-02-17T06:51:42.826Z,2.81
2019-02-17T06:52:42.835Z,2.90
2019-02-17T06:53:42.815Z,2.97
2019-02-17T06:54:42.798Z,3.10
2019-02-17T06:55:42.785Z,3.02
2019-02-17T06:56:42.776Z,3.10
2019-02-17T06:57:42.909Z,3.10
2019-02-17T06:58:42.765Z,3.13
2019-02-17T06:59:42.739Z,3.22
2019-02-17T07:00:42.740Z,3.19
2019-02-17T07:01:42.728Z,3.22
2019-02-17T07:02:42.732Z,3.41
2019-02-17T07:03:42.729Z,3.45
2019-02-17T07:04:42.695Z,3.46
2019-02-17T07:05:42.699Z,3.49
2019-02-17T07:06:42.683Z,3.56
2019-02-17T07:07:42.672Z,3.57
2019-02-17T07:08:42.666Z,3.60
2019-02-17T07:09:42.630Z,3.64
2019-02-17T07:10:42.646Z,3.62
2019-02-17T07:11:42.638Z,3.74
2019-02-17T07:12:42.782Z,3.82
2019-02-17T07:13:42.606Z,3.75
2019-02-17T07:14:42.585Z,3.82
2019-02-17T07:15:42.565Z,3.89
2019-02-17T07:16:42.567Z,3.89
2019-02-17T07:17:42.577Z,3.82
2019-02-17T07:18:42.541Z,3.95
2019-02-17T07:19:42.535Z,3.90
2019-02-17T07:20:42.519Z,3.89
2019-02-17T07:21:42.509Z,3.92
2019-02-17T07:22:42.517Z,3.88
2019-02-17T07:23:42.489Z,3.95
2019-02-17T07:24:42.479Z,3.90
2019-02-17T07:25:42.470Z,3.90
2019-02-17T07:26:42.453Z,3.95
2019-02-17T07:27:42.484Z,3.93
2019-02-17T07:28:42.443Z,3.90
2019-02-17T07:29:42.427Z,3.93
2019-02-17T07:30:42.425Z,4.02
2019-02-17T07:31:42.409Z,3.95
2019-02-17T07:32:42.414Z,3.98
2019-02-17T07:33:42.385Z,3.99
2019-02-17T07:34:42.373Z,3.93
2019-02-17T07:35:42.378Z,4.04
2019-02-17T07:36:42.355Z,4.10
2019-02-17T07:37:42.373Z,4.14
2019-02-17T07:38:42.339Z,4.14
2019-02-17T07:40:51.540Z,4.29
2019-02-17T07:41:52.504Z,4.25
2019-02-17T07:42:52.541Z,4.26
2019-02-17T07:43:52.473Z,4.34
2019-02-17T07:44:52.473Z,4.43
2019-02-17T07:45:52.450Z,4.35
2019-02-17T07:46:52.474Z,4.49
2019-02-17T07:47:52.455Z,4.47
2019-02-17T07:48:52.431Z,4.56
2019-02-17T07:49:52.426Z,4.50
2019-02-17T07:50:52.406Z,4.56
2019-02-17T07:51:52.399Z,4.54
2019-02-17T07:52:52.396Z,4.64
2019-02-17T07:53:52.366Z,4.61
2019-02-17T07:54:52.368Z,4.69
2019-02-17T07:55:52.352Z,4.68
2019-02-17T07:56:52.339Z,4.80
2019-02-17T07:57:52.342Z,4.75
2019-02-17T07:58:52.325Z,4.83
2019-02-17T07:59:52.314Z,4.88
2019-02-17T08:00:52.288Z,4.90
2019-02-17T08:01:52.286Z,4.99
2019-02-17T08:02:52.319Z,4.97
2019-02-17T08:03:52.262Z,5.06
2019-02-17T08:04:52.244Z,5.11
2019-02-17T08:05:52.238Z,5.09
2019-02-17T08:06:52.225Z,5.11
2019-02-17T08:07:52.235Z,5.06
2019-02-17T08:08:52.223Z,5.17
2019-02-17T08:09:52.189Z,5.14
2019-02-17T08:10:52.179Z,5.24
2019-02-17T08:11:52.169Z,5.23
2019-02-17T08:12:52.176Z,5.27
2019-02-17T08:13:52.158Z,5.27
2019-02-17T08:14:52.163Z,5.44
2019-02-17T08:15:52.129Z,5.40
2019-02-17T08:16:52.112Z,5.37
2019-02-17T08:17:52.132Z,5.47
2019-02-17T08:18:52.102Z,5.42
2019-02-17T08:19:52.084Z,5.58
2019-02-17T08:20:52.068Z,5.56
2019-02-17T08:21:52.750Z,5.52
2019-02-17T08:22:52.067Z,5.59
2019-02-17T08:23:52.036Z,5.66
2019-02-17T08:24:52.035Z,5.74
2019-02-17T08:25:52.013Z,5.62
2019-02-17T08:26:52.005Z,5.65
2019-02-17T08:27:52.005Z,5.73
2019-02-17T08:28:51.983Z,5.70
2019-02-17T08:29:51.970Z,5.67
2019-02-17T08:30:51.960Z,5.75
2019-02-17T08:31:55.958Z,5.75
2019-02-17T08:32:51.937Z,5.77
2019-02-17T08:33:51.963Z,5.78
2019-02-17T08:34:53.279Z,5.83
2019-02-17T08:35:51.934Z,5.87
2019-02-17T08:36:51.889Z,5.88
2019-02-17T08:37:51.928Z,5.98
2019-02-17T08:38:51.906Z,5.96
2019-02-17T08:39:51.876Z,6.02
2019-02-17T08:40:51.845Z,6.01
2019-02-17T08:41:51.840Z,6.17
2019-02-17T08:42:51.827Z,6.11
2019-02-17T08:43:51.841Z,6.25
2019-02-17T08:44:51.825Z,6.25
2019-02-17T08:45:51.800Z,6.35
2019-02-17T08:46:51.788Z,6.38
2019-02-17T08:47:51.777Z,6.46
2019-02-17T08:48:51.794Z,6.48
2019-02-17T08:49:51.764Z,6.51
2019-02-17T08:50:51.746Z,6.53
2019-02-17T08:51:51.736Z,6.54
2019-02-17T08:52:51.717Z,6.60
2019-02-17T08:53:51.743Z,6.60
2019-02-17T08:54:51.697Z,6.65
2019-02-17T08:55:51.680Z,6.65
2019-02-17T08:56:51.679Z,6.68
2019-02-17T08:57:51.665Z,6.78
2019-02-17T08:58:51.686Z,6.81
2019-02-17T08:59:51.652Z,6.94
2019-02-17T09:00:51.635Z,6.87
2019-02-17T09:01:51.622Z,7.01
2019-02-17T09:02:51.615Z,7.04
2019-02-17T09:03:51.614Z,7.07
2019-02-17T09:04:51.613Z,7.15
2019-02-17T09:05:51.585Z,7.14
2019-02-17T09:06:51.567Z,7.14
2019-02-17T09:07:51.564Z,7.26
2019-02-17T09:08:51.577Z,7.34
2019-02-17T09:09:51.538Z,7.34
2019-02-17T09:10:51.519Z,7.33
2019-02-17T09:11:51.505Z,7.41
2019-02-17T09:12:51.492Z,7.45
2019-02-17T09:13:51.508Z,7.54
2019-02-17T09:14:51.486Z,7.54
2019-02-17T09:15:51.467Z,7.66
2019-02-17T09:16:51.450Z,7.63
2019-02-17T09:17:51.441Z,7.74
2019-02-17T09:18:51.456Z,7.77
2019-02-17T09:19:51.439Z,7.84
2019-02-17T09:20:51.409Z,7.82
2019-02-17T09:21:51.398Z,7.99
2019-02-17T09:22:51.394Z,8.03
2019-02-17T09:23:51.404Z,8.06
2019-02-17T09:24:51.379Z,8.03
2019-02-17T09:25:51.360Z,8.12
2019-02-17T09:26:51.352Z,8.10
2019-02-17T09:27:51.338Z,8.24
2019-02-17T09:28:51.340Z,8.28
2019-02-17T09:29:51.311Z,8.31
2019-02-17T09:30:51.304Z,8.37
2019-02-17T09:31:51.284Z,8.42
2019-02-17T09:32:51.279Z,8.46
2019-02-17T09:33:51.297Z,8.54
2019-02-17T09:34:51.285Z,8.65
2019-02-17T09:35:51.251Z,8.68
2019-02-17T09:36:51.291Z,8.67
2019-02-17T09:37:51.229Z,8.78
2019-02-17T09:38:51.241Z,8.79
2019-02-17T09:39:51.206Z,8.79
2019-02-17T09:42:00.386Z,9.00
2019-02-17T09:43:01.377Z,9.15
2019-02-17T09:44:01.376Z,9.15
2019-02-17T09:45:01.341Z,9.16
2019-02-17T09:46:01.491Z,9.27
2019-02-17T09:47:01.325Z,9.32
2019-02-17T09:48:01.320Z,9.48
2019-02-17T09:49:01.321Z,9.41
2019-02-17T09:50:01.296Z,9.58
2019-02-17T09:51:01.283Z,9.63
2019-02-17T09:52:01.269Z,9.60
2019-02-17T09:53:01.258Z,9.58
2019-02-17T09:54:01.279Z,9.68
2019-02-17T09:55:01.249Z,9.73
2019-02-17T09:56:01.225Z,9.78
2019-02-17T09:57:01.223Z,9.81
2019-02-17T09:58:01.203Z,9.89
2019-02-17T09:59:01.223Z,9.96
2019-02-17T10:00:01.193Z,9.88
2019-02-17T10:01:01.180Z,9.93
2019-02-17T10:02:01.159Z,10.01
2019-02-17T10:03:01.156Z,9.93
2019-02-17T10:04:01.159Z,10.04
2019-02-17T10:05:01.144Z,10.04
2019-02-17T10:06:01.125Z,10.11
2019-02-17T10:07:01.115Z,10.24
2019-02-17T10:08:01.102Z,10.32
2019-02-17T10:09:01.121Z,10.38
2019-02-17T10:10:01.101Z,10.38
2019-02-17T10:11:01.071Z,10.36
2019-02-17T10:12:01.063Z,10.43
2019-02-17T10:13:01.439Z,10.55
2019-02-17T10:14:01.025Z,10.44
2019-02-17T10:15:01.034Z,10.62
2019-02-17T10:16:01.053Z,10.57
2019-02-17T10:17:00.992Z,10.57
2019-02-17T10:18:00.992Z,10.83
2019-02-17T10:19:00.989Z,10.90
2019-02-17T10:20:00.992Z,11.01
2019-02-17T10:21:01.629Z,11.01
2019-02-17T10:22:00.939Z,11.16
2019-02-17T10:23:00.929Z,11.24
2019-02-17T10:24:00.923Z,11.30
2019-02-17T10:25:00.940Z,11.33
2019-02-17T10:26:00.904Z,11.42
2019-02-17T10:27:00.889Z,11.45
2019-02-17T10:28:00.889Z,11.41
2019-02-17T10:29:00.868Z,11.54
2019-02-17T10:30:00.876Z,11.42
2019-02-17T10:31:00.853Z,11.41
2019-02-17T10:32:00.840Z,11.51
2019-02-17T10:33:00.830Z,11.54
2019-02-17T10:34:00.814Z,11.42
2019-02-17T10:35:00.824Z,11.41
2019-02-17T10:36:00.798Z,11.48
2019-02-17T10:37:00.800Z,11.51
2019-02-17T10:38:00.766Z,11.54
2019-02-17T10:39:00.770Z,11.60
2019-02-17T10:40:00.768Z,11.63
2019-02-17T10:41:00.748Z,11.74
2019-02-17T10:42:00.736Z,11.88
2019-02-17T10:43:00.728Z,11.88
2019-02-17T10:44:00.709Z,11.90
2019-02-17T10:45:00.709Z,11.94
2019-02-17T10:46:00.694Z,11.90
2019-02-17T10:47:00.682Z,11.97
2019-02-17T10:48:00.658Z,12.07
2019-02-17T10:49:00.657Z,12.12
2019-02-17T10:50:00.671Z,12.23
2019-02-17T10:51:00.636Z,12.31
2019-02-17T10:52:00.612Z,12.37
2019-02-17T10:53:00.612Z,12.36
2019-02-17T10:54:00.601Z,12.44
2019-02-17T10:55:00.617Z,12.43
2019-02-17T10:56:00.575Z,12.61
2019-02-17T10:57:00.568Z,12.70
2019-02-17T10:58:00.575Z,12.66
2019-02-17T10:59:00.538Z,12.67
2019-02-17T11:00:00.558Z,12.52
2019-02-17T11:01:00.525Z,12.56
2019-02-17T11:02:00.508Z,12.61
2019-02-17T11:03:00.502Z,12.66
2019-02-17T11:04:00.482Z,12.81
2019-02-17T11:05:00.492Z,12.81
2019-02-17T11:06:00.468Z,12.88
2019-02-17T11:07:00.461Z,12.91
2019-02-17T11:08:00.491Z,12.99
2019-02-17T11:09:00.447Z,13.03
2019-02-17T11:10:00.446Z,13.01
2019-02-17T11:11:00.416Z,12.99
2019-02-17T11:12:00.402Z,13.04
2019-02-17T11:13:00.387Z,13.09
2019-02-17T11:14:00.377Z,13.01
2019-02-17T11:15:01.155Z,13.16
2019-02-17T11:16:00.363Z,13.03
2019-02-17T11:17:00.352Z,13.14
2019-02-17T11:18:00.356Z,13.19
2019-02-17T11:19:00.320Z,13.32
2019-02-17T11:20:00.304Z,13.29
2019-02-17T11:21:00.325Z,13.50
2019-02-17T11:22:00.292Z,13.48
2019-02-17T11:23:00.281Z,13.47
2019-02-17T11:24:00.268Z,13.48
2019-02-17T11:25:00.357Z,13.48
2019-02-17T11:26:00.247Z,13.53
2019-02-17T11:27:00.268Z,13.68
2019-02-17T11:28:00.229Z,13.73
2019-02-17T11:29:00.207Z,13.87
2019-02-17T11:30:00.306Z,13.94
2019-02-17T11:31:00.194Z,14.04
2019-02-17T11:32:00.205Z,14.01
2019-02-17T11:33:00.176Z,14.02
2019-02-17T11:34:00.154Z,14.13
2019-02-17T11:35:00.341Z,14.08
2019-02-17T11:36:00.141Z,14.30
2019-02-17T11:37:00.142Z,14.17
2019-02-17T11:38:00.115Z,14.24
2019-02-17T11:39:00.105Z,14.36
2019-02-17T11:40:00.149Z,14.27
2019-02-17T11:41:00.079Z,14.29
2019-02-17T11:43:09.285Z,14.30
2019-02-17T11:44:10.255Z,14.42
2019-02-17T11:45:10.229Z,14.41
2019-02-17T11:46:10.231Z,14.42
2019-02-17T11:47:10.222Z,14.41
2019-02-17T11:48:10.239Z,14.45
2019-02-17T11:49:10.185Z,14.48
2019-02-17T11:50:10.175Z,14.48
2019-02-17T11:51:10.164Z,14.41
2019-02-17T11:52:10.167Z,14.52
2019-02-17T11:53:10.161Z,14.52
2019-02-17T11:54:10.140Z,14.61
2019-02-17T11:55:10.121Z,14.74
2019-02-17T11:56:10.114Z,14.80
2019-02-17T11:57:10.109Z,14.78
2019-02-17T11:58:10.116Z,14.78
2019-02-17T11:59:10.085Z,14.69
2019-02-17T12:00:10.069Z,14.63
2019-02-17T12:01:10.059Z,14.69
2019-02-17T12:02:10.049Z,14.78
2019-02-17T12:03:10.056Z,14.74
2019-02-17T12:04:10.039Z,14.80
2019-02-17T12:05:10.017Z,14.78
2019-02-17T12:06:09.996Z,14.86
2019-02-17T12:07:10.003Z,14.82
2019-02-17T12:08:09.977Z,14.79
2019-02-17T12:09:10.011Z,14.86
2019-02-17T12:10:09.965Z,14.87
2019-02-17T12:11:09.941Z,14.83
2019-02-17T12:12:09.942Z,14.98
2019-02-17T12:13:09.936Z,15.03
2019-02-17T12:14:09.936Z,15.12
2019-02-17T12:15:09.913Z,15.03
2019-02-17T12:16:09.889Z,15.03
2019-02-17T12:17:09.885Z,15.00
2019-02-17T12:18:09.863Z,15.03
2019-02-17T12:19:09.894Z,15.04
2019-02-17T12:20:09.858Z,15.09
2019-02-17T12:21:09.851Z,15.19
2019-02-17T12:22:09.840Z,15.19
2019-02-17T12:23:09.816Z,15.19
2019-02-17T12:24:09.828Z,15.16
2019-02-17T12:25:09.789Z,15.22
2019-02-17T12:26:09.779Z,15.20
2019-02-17T12:27:09.778Z,15.33
2019-02-17T12:28:09.770Z,15.34
2019-02-17T12:29:09.768Z,15.31
2019-02-17T12:30:09.752Z,15.25
2019-02-17T12:31:09.721Z,15.38
2019-02-17T12:32:09.710Z,15.49
2019-02-17T12:33:18.005Z,15.59
2019-02-17T12:34:09.711Z,15.66
2019-02-17T12:35:09.688Z,15.62
2019-02-17T12:36:09.675Z,15.46
2019-02-17T12:37:09.655Z,15.58
2019-02-17T12:38:09.661Z,15.58
2019-02-17T12:39:09.663Z,15.59
2019-02-17T12:40:09.632Z,15.68
2019-02-17T12:41:09.620Z,15.68
2019-02-17T12:42:09.607Z,15.68
2019-02-17T12:43:09.595Z,15.70
2019-02-17T12:44:09.608Z,15.66
2019-02-17T12:45:09.577Z,15.78
2019-02-17T12:46:09.559Z,15.78
2019-02-17T12:47:09.547Z,15.78
2019-02-17T12:48:09.537Z,15.85
2019-02-17T12:49:09.550Z,15.81
2019-02-17T12:50:09.530Z,15.85
2019-02-17T12:51:09.517Z,15.84
2019-02-17T12:52:09.505Z,15.86
2019-02-17T12:53:09.492Z,15.86
2019-02-17T12:54:09.499Z,15.92
2019-02-17T12:55:09.473Z,16.04
2019-02-17T12:56:09.461Z,16.25
2019-02-17T12:57:09.437Z,16.30
2019-02-17T12:58:09.432Z,16.33
2019-02-17T12:59:09.435Z,16.40
2019-02-17T13:00:09.477Z,16.44
2019-02-17T13:01:09.402Z,16.47
2019-02-17T13:02:09.390Z,16.47
2019-02-17T13:03:09.377Z,16.47
2019-02-17T13:04:09.383Z,16.32
2019-02-17T13:05:09.438Z,16.33
2019-02-17T13:06:09.343Z,16.27
2019-02-17T13:07:09.334Z,16.33
2019-02-17T13:08:09.323Z,16.34
2019-02-17T13:09:09.329Z,16.37
2019-02-17T13:10:09.304Z,16.45
2019-02-17T13:11:09.282Z,16.40
2019-02-17T13:12:09.269Z,16.40
2019-02-17T13:13:09.254Z,16.52
2019-02-17T13:14:09.282Z,16.57
2019-02-17T13:15:09.249Z,16.52
2019-02-17T13:16:09.222Z,16.50
2019-02-17T13:17:09.214Z,16.47
2019-02-17T13:18:09.211Z,16.57